sensor_id;sensor_type;location;lat;lon;timestamp;P1;durP1;ratioP1;P2;durP2;ratioP2
50605;SDS011;36557;53.572;10.170;2023-01-26T00:02:06;51.35;;;21.83;;
50605;SDS011;36557;53.572;10.170;2023-01-26T00:04:32;56.20;;;22.88;;
50605;SDS011;36557;53.572;10.170;2023-01-26T00:06:57;56.97;;;22.15;;
50605;SDS011;36557;53.572;10.170;2023-01-26T00:09:23;58.75;;;22.92;;
50605;SDS011;36557;53.572;10.170;2023-01-26T00:11:49;52.25;;;22.40;;
50605;SDS011;36557;53.572;10.170;2023-01-26T00:14:14;52.05;;;20.88;;
50605;SDS011;36557;53.572;10.170;2023-01-26T00:16:40;50.80;;;21.00;;
50605;SDS011;36557;53.572;10.170;2023-01-26T00:19:06;48.95;;;20.52;;
50605;SDS011;36557;53.572;10.170;2023-01-26T00:21:31;53.08;;;21.65;;
50605;SDS011;36557;53.572;10.170;2023-01-26T00:23:57;52.83;;;21.30;;
50605;SDS011;36557;53.572;10.170;2023-01-26T00:26:24;52.70;;;20.55;;
50605;SDS011;36557;53.572;10.170;2023-01-26T00:28:51;46.53;;;19.58;;
50605;SDS011;36557;53.572;10.170;2023-01-26T00:31:21;50.42;;;21.05;;
50605;SDS011;36557;53.572;10.170;2023-01-26T00:33:49;54.40;;;22.08;;
50605;SDS011;36557;53.572;10.170;2023-01-26T00:36:15;51.33;;;20.80;;
50605;SDS011;36557;53.572;10.170;2023-01-26T00:38:41;52.28;;;21.30;;
50605;SDS011;36557;53.572;10.170;2023-01-26T00:41:07;49.30;;;19.80;;
50605;SDS011;36557;53.572;10.170;2023-01-26T00:43:54;48.83;;;20.27;;
50605;SDS011;36557;53.572;10.170;2023-01-26T00:46:20;48.03;;;19.77;;
50605;SDS011;36557;53.572;10.170;2023-01-26T00:48:45;50.25;;;21.67;;
50605;SDS011;36557;53.572;10.170;2023-01-26T00:51:11;54.30;;;20.98;;
50605;SDS011;36557;53.572;10.170;2023-01-26T00:53:36;52.95;;;20.80;;
50605;SDS011;36557;53.572;10.170;2023-01-26T00:56:02;51.75;;;19.80;;
50605;SDS011;36557;53.572;10.170;2023-01-26T00:58:28;50.65;;;21.02;;
50605;SDS011;36557;53.572;10.170;2023-01-26T01:00:54;53.75;;;21.88;;
50605;SDS011;36557;53.572;10.170;2023-01-26T01:03:19;48.80;;;20.48;;
50605;SDS011;36557;53.572;10.170;2023-01-26T01:05:45;49.17;;;20.30;;
50605;SDS011;36557;53.572;10.170;2023-01-26T01:08:11;55.20;;;20.02;;
50605;SDS011;36557;53.572;10.170;2023-01-26T01:10:36;52.80;;;21.60;;
50605;SDS011;36557;53.572;10.170;2023-01-26T01:13:02;45.95;;;18.33;;
50605;SDS011;36557;53.572;10.170;2023-01-26T01:15:28;55.08;;;20.92;;
50605;SDS011;36557;53.572;10.170;2023-01-26T01:17:53;52.17;;;20.25;;
50605;SDS011;36557;53.572;10.170;2023-01-26T01:20:19;44.47;;;19.02;;
50605;SDS011;36557;53.572;10.170;2023-01-26T01:22:45;44.55;;;18.55;;
50605;SDS011;36557;53.572;10.170;2023-01-26T01:25:10;52.40;;;19.40;;
50605;SDS011;36557;53.572;10.170;2023-01-26T01:27:36;47.05;;;19.55;;
50605;SDS011;36557;53.572;10.170;2023-01-26T01:30:02;50.13;;;20.13;;
50605;SDS011;36557;53.572;10.170;2023-01-26T01:32:32;47.90;;;18.63;;
50605;SDS011;36557;53.572;10.170;2023-01-26T01:35:03;51.75;;;20.42;;
50605;SDS011;36557;53.572;10.170;2023-01-26T01:37:29;52.40;;;20.75;;
50605;SDS011;36557;53.572;10.170;2023-01-26T01:39:57;51.22;;;20.20;;
50605;SDS011;36557;53.572;10.170;2023-01-26T01:42:23;44.40;;;17.95;;
50605;SDS011;36557;53.572;10.170;2023-01-26T01:47:49;49.75;;;20.00;;
50605;SDS011;36557;53.572;10.170;2023-01-26T01:50:17;43.83;;;17.13;;
50605;SDS011;36557;53.572;10.170;2023-01-26T01:52:43;50.05;;;19.80;;
50605;SDS011;36557;53.572;10.170;2023-01-26T01:55:11;45.92;;;19.20;;
50605;SDS011;36557;53.572;10.170;2023-01-26T01:57:40;50.20;;;20.48;;
50605;SDS011;36557;53.572;10.170;2023-01-26T02:00:16;48.00;;;18.33;;
50605;SDS011;36557;53.572;10.170;2023-01-26T02:02:45;55.05;;;19.33;;
50605;SDS011;36557;53.572;10.170;2023-01-26T02:05:34;48.58;;;19.88;;
50605;SDS011;36557;53.572;10.170;2023-01-26T02:08:24;50.88;;;20.58;;
50605;SDS011;36557;53.572;10.170;2023-01-26T02:11:00;50.38;;;19.08;;
50605;SDS011;36557;53.572;10.170;2023-01-26T02:13:30;53.28;;;20.02;;
50605;SDS011;36557;53.572;10.170;2023-01-26T02:15:58;49.55;;;19.95;;
50605;SDS011;36557;53.572;10.170;2023-01-26T02:18:24;51.88;;;20.73;;
50605;SDS011;36557;53.572;10.170;2023-01-26T02:20:51;48.03;;;19.35;;
50605;SDS011;36557;53.572;10.170;2023-01-26T02:23:33;48.45;;;19.20;;
50605;SDS011;36557;53.572;10.170;2023-01-26T02:26:17;50.75;;;20.45;;
50605;SDS011;36557;53.572;10.170;2023-01-26T02:28:48;48.30;;;19.90;;
50605;SDS011;36557;53.572;10.170;2023-01-26T02:31:14;50.88;;;19.65;;
50605;SDS011;36557;53.572;10.170;2023-01-26T02:33:41;51.00;;;20.15;;
50605;SDS011;36557;53.572;10.170;2023-01-26T02:36:21;47.78;;;19.98;;
50605;SDS011;36557;53.572;10.170;2023-01-26T02:38:56;48.38;;;19.75;;
50605;SDS011;36557;53.572;10.170;2023-01-26T02:41:41;47.38;;;20.13;;
50605;SDS011;36557;53.572;10.170;2023-01-26T02:44:26;42.83;;;19.35;;
50605;SDS011;36557;53.572;10.170;2023-01-26T02:46:52;46.45;;;18.48;;
50605;SDS011;36557;53.572;10.170;2023-01-26T02:49:18;50.65;;;20.02;;
50605;SDS011;36557;53.572;10.170;2023-01-26T02:52:05;46.67;;;19.30;;
50605;SDS011;36557;53.572;10.170;2023-01-26T02:54:31;47.78;;;19.98;;
50605;SDS011;36557;53.572;10.170;2023-01-26T02:57:15;42.88;;;18.65;;
50605;SDS011;36557;53.572;10.170;2023-01-26T02:59:41;45.00;;;18.08;;
50605;SDS011;36557;53.572;10.170;2023-01-26T03:02:07;44.33;;;18.60;;
50605;SDS011;36557;53.572;10.170;2023-01-26T03:04:33;49.53;;;18.80;;
50605;SDS011;36557;53.572;10.170;2023-01-26T03:06:59;45.13;;;18.70;;
50605;SDS011;36557;53.572;10.170;2023-01-26T03:09:24;44.53;;;19.15;;
50605;SDS011;36557;53.572;10.170;2023-01-26T03:11:50;43.10;;;18.50;;
50605;SDS011;36557;53.572;10.170;2023-01-26T03:14:17;45.60;;;18.42;;
50605;SDS011;36557;53.572;10.170;2023-01-26T03:16:43;43.38;;;19.42;;
50605;SDS011;36557;53.572;10.170;2023-01-26T03:19:11;44.35;;;18.20;;
50605;SDS011;36557;53.572;10.170;2023-01-26T03:21:56;46.05;;;18.65;;
50605;SDS011;36557;53.572;10.170;2023-01-26T03:24:41;45.10;;;18.83;;
50605;SDS011;36557;53.572;10.170;2023-01-26T03:27:25;48.30;;;19.63;;
50605;SDS011;36557;53.572;10.170;2023-01-26T03:29:51;49.92;;;19.55;;
50605;SDS011;36557;53.572;10.170;2023-01-26T03:32:18;42.83;;;17.98;;
50605;SDS011;36557;53.572;10.170;2023-01-26T03:34:43;41.90;;;17.30;;
50605;SDS011;36557;53.572;10.170;2023-01-26T03:37:09;46.70;;;19.00;;
50605;SDS011;36557;53.572;10.170;2023-01-26T03:39:35;40.17;;;17.35;;
50605;SDS011;36557;53.572;10.170;2023-01-26T03:42:19;45.03;;;17.25;;
50605;SDS011;36557;53.572;10.170;2023-01-26T03:45:04;47.67;;;18.83;;
50605;SDS011;36557;53.572;10.170;2023-01-26T03:47:48;46.13;;;16.48;;
50605;SDS011;36557;53.572;10.170;2023-01-26T03:50:33;42.63;;;17.00;;
50605;SDS011;36557;53.572;10.170;2023-01-26T03:53:18;41.65;;;16.45;;
50605;SDS011;36557;53.572;10.170;2023-01-26T03:56:04;39.28;;;14.55;;
50605;SDS011;36557;53.572;10.170;2023-01-26T03:58:45;36.55;;;16.20;;
50605;SDS011;36557;53.572;10.170;2023-01-26T04:01:12;37.80;;;15.38;;
50605;SDS011;36557;53.572;10.170;2023-01-26T04:03:48;41.47;;;16.75;;
50605;SDS011;36557;53.572;10.170;2023-01-26T04:06:34;37.60;;;16.77;;
50605;SDS011;36557;53.572;10.170;2023-01-26T04:11:45;37.05;;;16.20;;
50605;SDS011;36557;53.572;10.170;2023-01-26T04:14:11;37.55;;;15.48;;
50605;SDS011;36557;53.572;10.170;2023-01-26T04:19:42;38.08;;;15.38;;
50605;SDS011;36557;53.572;10.170;2023-01-26T04:22:26;36.75;;;14.82;;
50605;SDS011;36557;53.572;10.170;2023-01-26T04:24:52;44.53;;;17.50;;
50605;SDS011;36557;53.572;10.170;2023-01-26T04:27:18;38.90;;;15.75;;
50605;SDS011;36557;53.572;10.170;2023-01-26T04:29:43;45.97;;;17.98;;
50605;SDS011;36557;53.572;10.170;2023-01-26T04:32:09;45.50;;;17.73;;
50605;SDS011;36557;53.572;10.170;2023-01-26T04:34:35;48.58;;;19.40;;
50605;SDS011;36557;53.572;10.170;2023-01-26T04:37:01;45.97;;;19.08;;
50605;SDS011;36557;53.572;10.170;2023-01-26T04:39:26;39.42;;;16.20;;
50605;SDS011;36557;53.572;10.170;2023-01-26T04:41:52;42.45;;;17.85;;
50605;SDS011;36557;53.572;10.170;2023-01-26T04:44:18;40.80;;;17.10;;
50605;SDS011;36557;53.572;10.170;2023-01-26T04:46:43;40.45;;;17.17;;
50605;SDS011;36557;53.572;10.170;2023-01-26T04:49:11;37.55;;;17.20;;
50605;SDS011;36557;53.572;10.170;2023-01-26T04:51:36;43.53;;;17.58;;
50605;SDS011;36557;53.572;10.170;2023-01-26T04:54:02;42.80;;;17.02;;
50605;SDS011;36557;53.572;10.170;2023-01-26T04:56:29;40.38;;;17.02;;
50605;SDS011;36557;53.572;10.170;2023-01-26T04:59:00;39.30;;;17.23;;
50605;SDS011;36557;53.572;10.170;2023-01-26T05:01:27;38.67;;;16.30;;
50605;SDS011;36557;53.572;10.170;2023-01-26T05:03:53;34.38;;;15.18;;
50605;SDS011;36557;53.572;10.170;2023-01-26T05:06:19;38.05;;;16.40;;
50605;SDS011;36557;53.572;10.170;2023-01-26T05:08:45;37.65;;;15.75;;
50605;SDS011;36557;53.572;10.170;2023-01-26T05:11:11;37.10;;;16.73;;
50605;SDS011;36557;53.572;10.170;2023-01-26T05:13:37;37.47;;;16.75;;
50605;SDS011;36557;53.572;10.170;2023-01-26T05:16:03;37.08;;;15.82;;
50605;SDS011;36557;53.572;10.170;2023-01-26T05:18:30;38.97;;;15.07;;
50605;SDS011;36557;53.572;10.170;2023-01-26T05:20:55;38.95;;;15.73;;
50605;SDS011;36557;53.572;10.170;2023-01-26T05:23:22;36.72;;;15.35;;
50605;SDS011;36557;53.572;10.170;2023-01-26T05:25:47;33.72;;;14.60;;
50605;SDS011;36557;53.572;10.170;2023-01-26T05:28:13;34.38;;;14.35;;
50605;SDS011;36557;53.572;10.170;2023-01-26T05:30:39;31.55;;;14.13;;
50605;SDS011;36557;53.572;10.170;2023-01-26T05:33:06;34.60;;;14.05;;
50605;SDS011;36557;53.572;10.170;2023-01-26T05:35:34;31.10;;;14.25;;
50605;SDS011;36557;53.572;10.170;2023-01-26T05:38:00;35.55;;;14.55;;
50605;SDS011;36557;53.572;10.170;2023-01-26T05:40:25;32.70;;;13.63;;
50605;SDS011;36557;53.572;10.170;2023-01-26T05:42:52;33.45;;;14.02;;
50605;SDS011;36557;53.572;10.170;2023-01-26T05:45:18;33.88;;;14.15;;
50605;SDS011;36557;53.572;10.170;2023-01-26T05:47:44;30.80;;;13.75;;
50605;SDS011;36557;53.572;10.170;2023-01-26T05:50:11;29.23;;;13.32;;
50605;SDS011;36557;53.572;10.170;2023-01-26T05:52:37;29.42;;;12.98;;
50605;SDS011;36557;53.572;10.170;2023-01-26T05:55:03;24.65;;;11.20;;
50605;SDS011;36557;53.572;10.170;2023-01-26T05:57:30;28.67;;;11.90;;
50605;SDS011;36557;53.572;10.170;2023-01-26T05:59:56;27.25;;;12.88;;
50605;SDS011;36557;53.572;10.170;2023-01-26T06:02:21;29.33;;;12.93;;
50605;SDS011;36557;53.572;10.170;2023-01-26T06:04:48;29.67;;;14.05;;
50605;SDS011;36557;53.572;10.170;2023-01-26T06:07:14;30.38;;;13.57;;
50605;SDS011;36557;53.572;10.170;2023-01-26T06:09:40;27.67;;;14.30;;
50605;SDS011;36557;53.572;10.170;2023-01-26T06:12:15;27.98;;;12.40;;
50605;SDS011;36557;53.572;10.170;2023-01-26T06:14:42;28.50;;;12.68;;
50605;SDS011;36557;53.572;10.170;2023-01-26T06:17:08;28.42;;;13.30;;
50605;SDS011;36557;53.572;10.170;2023-01-26T06:19:34;24.60;;;11.45;;
50605;SDS011;36557;53.572;10.170;2023-01-26T06:22:01;26.75;;;11.88;;
50605;SDS011;36557;53.572;10.170;2023-01-26T06:24:28;27.95;;;11.73;;
50605;SDS011;36557;53.572;10.170;2023-01-26T06:26:54;28.25;;;12.45;;
50605;SDS011;36557;53.572;10.170;2023-01-26T06:29:20;25.60;;;12.15;;
50605;SDS011;36557;53.572;10.170;2023-01-26T06:31:46;26.08;;;12.65;;
50605;SDS011;36557;53.572;10.170;2023-01-26T06:34:12;29.52;;;13.02;;
50605;SDS011;36557;53.572;10.170;2023-01-26T06:36:37;25.35;;;11.00;;
50605;SDS011;36557;53.572;10.170;2023-01-26T06:39:04;33.85;;;13.18;;
50605;SDS011;36557;53.572;10.170;2023-01-26T06:41:31;28.17;;;12.48;;
50605;SDS011;36557;53.572;10.170;2023-01-26T06:43:57;25.90;;;11.80;;
50605;SDS011;36557;53.572;10.170;2023-01-26T06:46:23;25.48;;;11.40;;
50605;SDS011;36557;53.572;10.170;2023-01-26T06:48:48;24.52;;;10.77;;
50605;SDS011;36557;53.572;10.170;2023-01-26T06:56:17;26.02;;;11.88;;
50605;SDS011;36557;53.572;10.170;2023-01-26T06:58:43;24.27;;;10.70;;
50605;SDS011;36557;53.572;10.170;2023-01-26T07:01:13;24.38;;;11.20;;
50605;SDS011;36557;53.572;10.170;2023-01-26T07:03:42;26.63;;;10.95;;
50605;SDS011;36557;53.572;10.170;2023-01-26T07:06:08;22.23;;;10.90;;
50605;SDS011;36557;53.572;10.170;2023-01-26T07:08:37;22.50;;;11.13;;
50605;SDS011;36557;53.572;10.170;2023-01-26T07:11:03;23.60;;;11.23;;
50605;SDS011;36557;53.572;10.170;2023-01-26T07:13:29;23.50;;;10.65;;
50605;SDS011;36557;53.572;10.170;2023-01-26T07:16:05;25.10;;;11.05;;
50605;SDS011;36557;53.572;10.170;2023-01-26T07:18:35;23.83;;;11.00;;
50605;SDS011;36557;53.572;10.170;2023-01-26T07:21:19;21.35;;;9.63;;
50605;SDS011;36557;53.572;10.170;2023-01-26T07:23:47;24.70;;;11.27;;
50605;SDS011;36557;53.572;10.170;2023-01-26T07:26:13;23.48;;;10.98;;
50605;SDS011;36557;53.572;10.170;2023-01-26T07:28:39;21.45;;;9.60;;
50605;SDS011;36557;53.572;10.170;2023-01-26T07:31:05;23.83;;;10.13;;
50605;SDS011;36557;53.572;10.170;2023-01-26T07:33:32;22.95;;;10.65;;
50605;SDS011;36557;53.572;10.170;2023-01-26T07:35:58;25.60;;;10.27;;
50605;SDS011;36557;53.572;10.170;2023-01-26T07:38:25;22.85;;;9.80;;
50605;SDS011;36557;53.572;10.170;2023-01-26T07:40:52;23.00;;;9.85;;
50605;SDS011;36557;53.572;10.170;2023-01-26T07:43:18;24.50;;;10.20;;
50605;SDS011;36557;53.572;10.170;2023-01-26T07:45:45;26.65;;;10.85;;
50605;SDS011;36557;53.572;10.170;2023-01-26T07:48:12;21.27;;;9.68;;
50605;SDS011;36557;53.572;10.170;2023-01-26T07:50:38;22.63;;;9.95;;
50605;SDS011;36557;53.572;10.170;2023-01-26T07:53:04;21.73;;;10.27;;
50605;SDS011;36557;53.572;10.170;2023-01-26T07:55:30;21.30;;;10.00;;
50605;SDS011;36557;53.572;10.170;2023-01-26T07:57:56;23.92;;;10.82;;
50605;SDS011;36557;53.572;10.170;2023-01-26T08:00:22;20.45;;;9.25;;
50605;SDS011;36557;53.572;10.170;2023-01-26T08:02:50;23.48;;;9.77;;
50605;SDS011;36557;53.572;10.170;2023-01-26T08:05:16;23.52;;;9.98;;
50605;SDS011;36557;53.572;10.170;2023-01-26T08:07:42;23.23;;;9.93;;
50605;SDS011;36557;53.572;10.170;2023-01-26T08:10:08;23.08;;;10.00;;
50605;SDS011;36557;53.572;10.170;2023-01-26T08:12:34;25.60;;;10.07;;
50605;SDS011;36557;53.572;10.170;2023-01-26T08:15:00;24.45;;;11.32;;
50605;SDS011;36557;53.572;10.170;2023-01-26T08:17:29;23.83;;;10.43;;
50605;SDS011;36557;53.572;10.170;2023-01-26T08:19:57;25.85;;;11.05;;
50605;SDS011;36557;53.572;10.170;2023-01-26T08:22:23;23.23;;;11.18;;
50605;SDS011;36557;53.572;10.170;2023-01-26T08:24:50;23.88;;;10.77;;
50605;SDS011;36557;53.572;10.170;2023-01-26T08:27:15;24.77;;;10.35;;
50605;SDS011;36557;53.572;10.170;2023-01-26T08:29:41;22.33;;;10.57;;
50605;SDS011;36557;53.572;10.170;2023-01-26T08:32:07;23.17;;;11.00;;
50605;SDS011;36557;53.572;10.170;2023-01-26T08:34:33;25.45;;;10.85;;
50605;SDS011;36557;53.572;10.170;2023-01-26T08:36:59;23.80;;;11.38;;
50605;SDS011;36557;53.572;10.170;2023-01-26T08:39:26;25.73;;;11.70;;
50605;SDS011;36557;53.572;10.170;2023-01-26T08:41:51;27.30;;;12.38;;
50605;SDS011;36557;53.572;10.170;2023-01-26T08:44:17;27.92;;;11.55;;
50605;SDS011;36557;53.572;10.170;2023-01-26T08:46:43;24.33;;;10.60;;
50605;SDS011;36557;53.572;10.170;2023-01-26T08:49:09;25.45;;;10.85;;
50605;SDS011;36557;53.572;10.170;2023-01-26T08:51:34;25.73;;;11.38;;
50605;SDS011;36557;53.572;10.170;2023-01-26T08:54:01;25.25;;;11.32;;
50605;SDS011;36557;53.572;10.170;2023-01-26T08:56:29;22.80;;;10.73;;
50605;SDS011;36557;53.572;10.170;2023-01-26T08:58:54;26.65;;;12.20;;
50605;SDS011;36557;53.572;10.170;2023-01-26T09:01:20;29.88;;;12.13;;
50605;SDS011;36557;53.572;10.170;2023-01-26T09:03:46;27.88;;;12.13;;
50605;SDS011;36557;53.572;10.170;2023-01-26T09:06:12;25.42;;;12.30;;
50605;SDS011;36557;53.572;10.170;2023-01-26T09:08:38;29.42;;;12.07;;
50605;SDS011;36557;53.572;10.170;2023-01-26T09:11:05;27.33;;;12.23;;
50605;SDS011;36557;53.572;10.170;2023-01-26T09:13:31;24.48;;;10.95;;
50605;SDS011;36557;53.572;10.170;2023-01-26T09:15:57;32.30;;;14.70;;
50605;SDS011;36557;53.572;10.170;2023-01-26T09:18:23;24.58;;;11.25;;
50605;SDS011;36557;53.572;10.170;2023-01-26T09:20:49;23.45;;;10.75;;
50605;SDS011;36557;53.572;10.170;2023-01-26T09:23:15;24.23;;;11.13;;
50605;SDS011;36557;53.572;10.170;2023-01-26T09:25:42;20.13;;;9.45;;
50605;SDS011;36557;53.572;10.170;2023-01-26T09:28:08;18.30;;;9.23;;
50605;SDS011;36557;53.572;10.170;2023-01-26T09:30:33;19.38;;;8.65;;
50605;SDS011;36557;53.572;10.170;2023-01-26T09:33:00;20.23;;;9.05;;
50605;SDS011;36557;53.572;10.170;2023-01-26T09:35:28;20.98;;;8.35;;
50605;SDS011;36557;53.572;10.170;2023-01-26T09:37:54;21.10;;;8.23;;
50605;SDS011;36557;53.572;10.170;2023-01-26T09:43:24;19.30;;;8.85;;
50605;SDS011;36557;53.572;10.170;2023-01-26T09:46:24;17.00;;;7.72;;
50605;SDS011;36557;53.572;10.170;2023-01-26T09:49:16;17.92;;;7.68;;
50605;SDS011;36557;53.572;10.170;2023-01-26T09:52:31;16.35;;;7.47;;
50605;SDS011;36557;53.572;10.170;2023-01-26T09:54:40;17.42;;;7.93;;
50605;SDS011;36557;53.572;10.170;2023-01-26T09:57:28;15.48;;;7.55;;
50605;SDS011;36557;53.572;10.170;2023-01-26T10:00:43;16.40;;;6.85;;
50605;SDS011;36557;53.572;10.170;2023-01-26T10:08:14;18.88;;;8.10;;
50605;SDS011;36557;53.572;10.170;2023-01-26T10:11:02;14.73;;;7.30;;
50605;SDS011;36557;53.572;10.170;2023-01-26T10:13:36;14.80;;;7.28;;
50605;SDS011;36557;53.572;10.170;2023-01-26T10:16:04;16.35;;;7.65;;
50605;SDS011;36557;53.572;10.170;2023-01-26T10:18:47;17.90;;;8.10;;
50605;SDS011;36557;53.572;10.170;2023-01-26T10:21:22;15.07;;;7.25;;
50605;SDS011;36557;53.572;10.170;2023-01-26T10:23:53;16.35;;;7.35;;
50605;SDS011;36557;53.572;10.170;2023-01-26T10:26:22;16.63;;;7.57;;
50605;SDS011;36557;53.572;10.170;2023-01-26T10:28:49;17.85;;;8.20;;
50605;SDS011;36557;53.572;10.170;2023-01-26T10:31:20;17.80;;;8.15;;
50605;SDS011;36557;53.572;10.170;2023-01-26T10:33:53;20.63;;;9.52;;
50605;SDS011;36557;53.572;10.170;2023-01-26T10:36:22;18.27;;;8.80;;
50605;SDS011;36557;53.572;10.170;2023-01-26T10:38:48;18.65;;;8.52;;
50605;SDS011;36557;53.572;10.170;2023-01-26T10:43:49;17.25;;;8.77;;
50605;SDS011;36557;53.572;10.170;2023-01-26T10:46:24;21.30;;;9.52;;
50605;SDS011;36557;53.572;10.170;2023-01-26T10:49:12;18.13;;;8.18;;
50605;SDS011;36557;53.572;10.170;2023-01-26T10:51:44;18.50;;;8.38;;
50605;SDS011;36557;53.572;10.170;2023-01-26T10:54:28;16.80;;;7.70;;
50605;SDS011;36557;53.572;10.170;2023-01-26T11:01:54;21.95;;;9.85;;
50605;SDS011;36557;53.572;10.170;2023-01-26T11:04:34;21.52;;;9.60;;
50605;SDS011;36557;53.572;10.170;2023-01-26T11:07:46;21.63;;;10.00;;
50605;SDS011;36557;53.572;10.170;2023-01-26T11:09:51;22.75;;;9.80;;
50605;SDS011;36557;53.572;10.170;2023-01-26T11:12:18;21.13;;;10.32;;
50605;SDS011;36557;53.572;10.170;2023-01-26T11:15:04;20.73;;;9.07;;
50605;SDS011;36557;53.572;10.170;2023-01-26T11:17:54;21.63;;;9.65;;
50605;SDS011;36557;53.572;10.170;2023-01-26T11:20:47;22.50;;;9.25;;
50605;SDS011;36557;53.572;10.170;2023-01-26T11:31:41;19.98;;;9.65;;
50605;SDS011;36557;53.572;10.170;2023-01-26T11:37:32;24.40;;;9.57;;
50605;SDS011;36557;53.572;10.170;2023-01-26T11:45:27;25.57;;;9.27;;
50605;SDS011;36557;53.572;10.170;2023-01-26T11:51:23;24.20;;;10.32;;
50605;SDS011;36557;53.572;10.170;2023-01-26T11:54:17;22.05;;;9.05;;
50605;SDS011;36557;53.572;10.170;2023-01-26T11:56:47;25.60;;;8.73;;
50605;SDS011;36557;53.572;10.170;2023-01-26T11:59:26;24.63;;;9.23;;
50605;SDS011;36557;53.572;10.170;2023-01-26T12:02:26;22.33;;;8.55;;
50605;SDS011;36557;53.572;10.170;2023-01-26T12:07:56;19.70;;;7.65;;
50605;SDS011;36557;53.572;10.170;2023-01-26T12:12:59;31.20;;;7.97;;
50605;SDS011;36557;53.572;10.170;2023-01-26T12:15:35;29.52;;;9.27;;
50605;SDS011;36557;53.572;10.170;2023-01-26T12:21:16;34.15;;;8.63;;
50605;SDS011;36557;53.572;10.170;2023-01-26T12:23:50;24.58;;;8.90;;
50605;SDS011;36557;53.572;10.170;2023-01-26T12:26:32;24.80;;;8.02;;
50605;SDS011;36557;53.572;10.170;2023-01-26T12:32:17;40.95;;;8.38;;
50605;SDS011;36557;53.572;10.170;2023-01-26T12:34:43;29.75;;;7.85;;
50605;SDS011;36557;53.572;10.170;2023-01-26T12:39:44;37.20;;;9.67;;
50605;SDS011;36557;53.572;10.170;2023-01-26T12:45:15;32.17;;;8.20;;
50605;SDS011;36557;53.572;10.170;2023-01-26T12:50:47;34.15;;;8.55;;
50605;SDS011;36557;53.572;10.170;2023-01-26T12:53:23;43.08;;;9.50;;
50605;SDS011;36557;53.572;10.170;2023-01-26T12:56:11;27.17;;;8.68;;
50605;SDS011;36557;53.572;10.170;2023-01-26T12:58:54;27.67;;;8.18;;
50605;SDS011;36557;53.572;10.170;2023-01-26T13:01:21;37.15;;;8.90;;
50605;SDS011;36557;53.572;10.170;2023-01-26T13:04:01;30.17;;;8.63;;
50605;SDS011;36557;53.572;10.170;2023-01-26T13:06:32;26.65;;;8.82;;
50605;SDS011;36557;53.572;10.170;2023-01-26T13:11:53;27.40;;;7.57;;
50605;SDS011;36557;53.572;10.170;2023-01-26T13:19:51;21.63;;;9.35;;
50605;SDS011;36557;53.572;10.170;2023-01-26T13:35:15;17.33;;;7.80;;
50605;SDS011;36557;53.572;10.170;2023-01-26T13:40:51;15.48;;;7.05;;
50605;SDS011;36557;53.572;10.170;2023-01-26T13:43:36;14.27;;;6.25;;
50605;SDS011;36557;53.572;10.170;2023-01-26T13:46:42;20.40;;;6.55;;
50605;SDS011;36557;53.572;10.170;2023-01-26T13:49:38;15.05;;;6.63;;
50605;SDS011;36557;53.572;10.170;2023-01-26T13:52:40;18.63;;;6.32;;
50605;SDS011;36557;53.572;10.170;2023-01-26T13:54:56;14.88;;;5.68;;
50605;SDS011;36557;53.572;10.170;2023-01-26T13:57:26;15.27;;;5.80;;
50605;SDS011;36557;53.572;10.170;2023-01-26T13:59:57;15.65;;;5.45;;
50605;SDS011;36557;53.572;10.170;2023-01-26T14:02:31;12.23;;;6.18;;
50605;SDS011;36557;53.572;10.170;2023-01-26T14:04:59;15.85;;;5.13;;
50605;SDS011;36557;53.572;10.170;2023-01-26T14:07:27;13.32;;;5.55;;
50605;SDS011;36557;53.572;10.170;2023-01-26T14:10:18;13.77;;;6.00;;
50605;SDS011;36557;53.572;10.170;2023-01-26T14:12:45;18.73;;;6.55;;
50605;SDS011;36557;53.572;10.170;2023-01-26T14:15:22;17.08;;;6.88;;
50605;SDS011;36557;53.572;10.170;2023-01-26T14:18:02;16.38;;;5.80;;
50605;SDS011;36557;53.572;10.170;2023-01-26T14:20:33;15.00;;;6.07;;
50605;SDS011;36557;53.572;10.170;2023-01-26T14:25:40;13.45;;;5.60;;
50605;SDS011;36557;53.572;10.170;2023-01-26T14:28:11;19.98;;;5.78;;
50605;SDS011;36557;53.572;10.170;2023-01-26T14:30:39;15.55;;;6.32;;
50605;SDS011;36557;53.572;10.170;2023-01-26T14:33:12;17.10;;;5.32;;
50605;SDS011;36557;53.572;10.170;2023-01-26T14:35:40;16.08;;;5.10;;
50605;SDS011;36557;53.572;10.170;2023-01-26T14:43:10;21.83;;;5.88;;
50605;SDS011;36557;53.572;10.170;2023-01-26T14:45:37;13.48;;;5.28;;
50605;SDS011;36557;53.572;10.170;2023-01-26T14:48:08;18.00;;;5.63;;
50605;SDS011;36557;53.572;10.170;2023-01-26T14:50:39;20.98;;;5.53;;
50605;SDS011;36557;53.572;10.170;2023-01-26T14:53:18;13.20;;;5.00;;
50605;SDS011;36557;53.572;10.170;2023-01-26T14:55:45;15.68;;;4.88;;
50605;SDS011;36557;53.572;10.170;2023-01-26T14:58:18;13.95;;;4.60;;
50605;SDS011;36557;53.572;10.170;2023-01-26T15:00:55;12.55;;;4.40;;
50605;SDS011;36557;53.572;10.170;2023-01-26T15:08:40;11.50;;;4.82;;
50605;SDS011;36557;53.572;10.170;2023-01-26T15:11:22;17.55;;;4.95;;
50605;SDS011;36557;53.572;10.170;2023-01-26T15:19:54;10.30;;;4.40;;
50605;SDS011;36557;53.572;10.170;2023-01-26T15:22:20;11.48;;;4.80;;
50605;SDS011;36557;53.572;10.170;2023-01-26T15:27:57;14.85;;;5.07;;
50605;SDS011;36557;53.572;10.170;2023-01-26T15:30:27;10.23;;;4.88;;
50605;SDS011;36557;53.572;10.170;2023-01-26T15:33:01;10.25;;;5.63;;
50605;SDS011;36557;53.572;10.170;2023-01-26T15:35:31;12.25;;;5.95;;
50605;SDS011;36557;53.572;10.170;2023-01-26T15:38:07;16.50;;;6.65;;
50605;SDS011;36557;53.572;10.170;2023-01-26T15:40:34;13.32;;;6.55;;
50605;SDS011;36557;53.572;10.170;2023-01-26T15:43:03;17.33;;;7.50;;
50605;SDS011;36557;53.572;10.170;2023-01-26T15:45:40;15.95;;;7.15;;
50605;SDS011;36557;53.572;10.170;2023-01-26T15:48:12;17.77;;;7.63;;
50605;SDS011;36557;53.572;10.170;2023-01-26T15:50:37;16.65;;;7.20;;
50605;SDS011;36557;53.572;10.170;2023-01-26T15:53:03;12.57;;;6.68;;
50605;SDS011;36557;53.572;10.170;2023-01-26T15:55:30;16.58;;;7.28;;
50605;SDS011;36557;53.572;10.170;2023-01-26T15:57:57;15.63;;;7.47;;
50605;SDS011;36557;53.572;10.170;2023-01-26T16:00:23;15.20;;;7.60;;
50605;SDS011;36557;53.572;10.170;2023-01-26T16:02:49;17.45;;;7.25;;
50605;SDS011;36557;53.572;10.170;2023-01-26T16:05:20;13.70;;;6.15;;
50605;SDS011;36557;53.572;10.170;2023-01-26T16:07:47;15.20;;;7.20;;
50605;SDS011;36557;53.572;10.170;2023-01-26T16:10:14;17.13;;;7.55;;
50605;SDS011;36557;53.572;10.170;2023-01-26T16:12:42;16.42;;;7.65;;
50605;SDS011;36557;53.572;10.170;2023-01-26T16:17:52;18.70;;;8.15;;
50605;SDS011;36557;53.572;10.170;2023-01-26T16:20:17;12.88;;;7.47;;
50605;SDS011;36557;53.572;10.170;2023-01-26T16:22:43;16.42;;;7.22;;
50605;SDS011;36557;53.572;10.170;2023-01-26T16:25:18;19.15;;;9.02;;
50605;SDS011;36557;53.572;10.170;2023-01-26T16:27:48;20.00;;;8.60;;
50605;SDS011;36557;53.572;10.170;2023-01-26T16:30:14;17.50;;;7.70;;
50605;SDS011;36557;53.572;10.170;2023-01-26T16:32:40;17.42;;;8.00;;